This is the latest recevied weather packets stored in our database for station/object JA0BES-13. If no packets are shown the sender has not sent any weather packets the latest 10 day(s).
| Time | Temp. | Humidity | Pressure | Rain* | Wind** | Luminosity | Snow |
|---|---|---|---|---|---|---|---|
| 1777627306 | 13.89° C | 100% | 992.4 hPa | 18.8 mm | - | - | - |
| 1777626706 | 13.89° C | 100% | 992.7 hPa | 18.29 mm | - | - | - |
| 1777626105 | 14.44° C | 100% | 992.7 hPa | 16 mm | - | - | - |
| 1777625505 | 14.44° C | 100% | 992.3 hPa | 14.99 mm | - | - | - |
| 1777624904 | 15° C | 100% | 992.1 hPa | 14.22 mm | - | - | - |
| 1777624304 | 15.56° C | 100% | 992 hPa | 14.22 mm | - | - | - |
| 1777623704 | 15.56° C | 100% | 991.6 hPa | 13.97 mm | - | - | - |
| 1777623104 | 16.11° C | 100% | 991.1 hPa | 13.97 mm | - | - | - |
| 1777622503 | 17.22° C | 100% | 991.2 hPa | 9.65 mm | - | - | - |
| 1777621903 | 17.78° C | 100% | 991 hPa | 7.87 mm | - | - | - |
| 1777621302 | 17.78° C | 100% | 991 hPa | 7.62 mm | - | - | - |
| 1777620702 | 18.33° C | 100% | 990.7 hPa | 7.62 mm | - | - | - |
| 1777620102 | 18.33° C | 100% | 991.4 hPa | 7.62 mm | - | - | - |
| 1777619501 | 18.89° C | 100% | 991.7 hPa | 7.62 mm | - | - | - |
| 1777618901 | 18.89° C | 100% | 991.6 hPa | 7.62 mm | - | - | - |
| 1777618301 | 18.89° C | 100% | 991.6 hPa | 7.62 mm | - | - | - |
| 1777617700 | 18.33° C | 100% | 992 hPa | 7.62 mm | - | - | - |
| 1777617100 | 18.33° C | 100% | 992.4 hPa | 7.62 mm | - | - | - |
| 1777616499 | 17.78° C | 100% | 992.7 hPa | 7.62 mm | - | - | - |
| 1777615899 | 17.78° C | 100% | 993 hPa | 7.62 mm | - | - | - |
| 1777615299 | 17.78° C | 100% | 993.2 hPa | 7.62 mm | - | - | - |
| 1777614699 | 17.78° C | 100% | 993.5 hPa | 7.62 mm | - | - | - |
| 1777614098 | 18.33° C | 100% | 993.9 hPa | 7.62 mm | - | - | - |
| 1777613498 | 18.33° C | 100% | 993.6 hPa | 7.62 mm | - | - | - |
| 1777612897 | 18.33° C | 100% | 993.8 hPa | 7.62 mm | - | - | - |
* Rain since midnight (hover to see other rain measurements)
** Current wind speed in m/s (hover to see current wind gust speed)